Flor Da Beira — CUBD4 — position and weather

sailwx.info

Track history (hours):
 
Tides and Currents Weather Stations Pressure Air Temp Water Temp Dewpoint Dewpoint Depression Visibility Wind Speed Wind Dir Waves Ship Positions

Flor Da Beira

Last reported at 2017-Oct-26 10:26 UTC. Time now 2017-Dec-14 00:29 UTC.
Position N 37°02' W 008°11'.
Warning: this ship's position is 48 days out of date.

Length 23 m.

Type: Fishing. MMSI: 263408350.

Date/timePositionNaut miles runAvg speedWind from/ knotsBaromVisibWave heightAir tempDewpointWater temp
2017-Oct-26 10:26N 37°02' W 008°11'0 0.4
2017-Oct-26 09:48N 37°02' W 008°11'0 0.1
2017-Oct-26 09:28N 37°02' W 008°11'1 1.7
2017-Oct-26 08:52N 37°02' W 008°12'1 2.5
2017-Oct-26 08:28N 37°02' W 008°14'1 1.9
2017-Oct-26 07:59N 37°03' W 008°14'0 0.5
2017-Oct-26 07:29N 37°03' W 008°14'0 0.1
2017-Oct-26 06:29N 37°03' W 008°14'0 0.6
2017-Oct-26 05:57N 37°03' W 008°14'4 0.1
2017-Oct-24 05:25N 36°59' W 008°11'0 0.4
2017-Oct-24 05:00N 36°59' W 008°11'0 0.2
2017-Oct-24 04:26N 36°59' W 008°11'0 0.2
2017-Oct-24 03:59N 36°59' W 008°11'2 1.6
2017-Oct-24 02:43N 37°00' W 008°09'3 0.2
2017-Oct-23 07:03N 36°57' W 008°10'0 0.4
2017-Oct-23 07:00N 36°57' W 008°10'0 0.4
2017-Oct-23 06:30N 36°57' W 008°10'0 0.1
2017-Oct-23 06:00N 36°57' W 008°10'0 0.2
2017-Oct-23 05:30N 36°58' W 008°10'1 1.7
2017-Oct-23 04:54N 36°57' W 008°09'1 2.6
2017-Oct-23 04:27N 36°58' W 008°10'1 2.0
2017-Oct-23 03:59N 36°59' W 008°10'2 2.3
2017-Oct-23 03:16N 37°00' W 008°09'0 0.4
2017-Oct-23 02:40N 37°01' W 008°09'0 0.3
2017-Oct-23 02:28N 37°01' W 008°09'0 0.1
2017-Oct-23 02:00N 37°01' W 008°09'0 0.9
2017-Oct-23 01:29N 37°01' W 008°10'4 8.6
2017-Oct-23 01:00N 37°02' W 008°15'5 9.3
2017-Oct-23 00:30N 37°01' W 008°20'5 9.6
2017-Oct-23 00:00N 37°04' W 008°25'5 9.8
2017-Oct-22 23:28N 37°06' W 008°31'2 4.2
2017-Oct-22 23:00N 37°08' W 008°32'  
2017-Oct-20 04:23N 37°08' W 008°32'0 0.2
2017-Oct-20 04:00N 37°08' W 008°32'1 1.0
2017-Oct-20 03:30N 37°07' W 008°32'5 8.4
2017-Oct-20 02:54N 37°05' W 008°37'8 4.5
2017-Oct-20 01:11N 37°04' W 008°47'1 4.6
2017-Oct-20 00:53N 37°03' W 008°48'0 0.2
2017-Oct-20 00:27N 37°03' W 008°48'0 0.1
2017-Oct-20 00:00N 37°03' W 008°48'3 0.2
2017-Oct-19 07:12N 37°01' W 008°49'2 8.7
2017-Oct-19 07:01N 37°01' W 008°47'2 3.3
2017-Oct-19 06:30N 37°02' W 008°46'4 7.5
2017-Oct-19 05:59N 37°01' W 008°41'3 5.9
2017-Oct-19 05:30N 37°02' W 008°38'4 8.6
2017-Oct-19 05:01N 37°04' W 008°33'4 7.1
2017-Oct-19 04:30N 37°05' W 008°28'3 5.8
2017-Oct-19 04:00N 37°03' W 008°26'3 6.2
2017-Oct-19 03:30N 37°01' W 008°29'3 6.2
2017-Oct-19 03:01N 37°03' W 008°31'4 7.7
2017-Oct-19 02:30N 37°07' W 008°32'1 1.9
2017-Oct-19 02:01N 37°08' W 008°32'0 0.0
2017-Oct-19 01:30N 37°08' W 008°32'0 0.0
2017-Oct-19 01:01N 37°08' W 008°32'0 0.0
2017-Oct-19 00:31N 37°08' W 008°32'0 0.0
2017-Oct-19 00:01N 37°08' W 008°32'0 0.0
2017-Oct-17 05:09N 37°08' W 008°32'0 0.0
2017-Oct-17 05:00N 37°08' W 008°32'0 0.0
2017-Oct-17 04:28N 37°08' W 008°32'0 0.0
2017-Oct-17 04:00N 37°08' W 008°32'0 0.0
2017-Oct-17 03:16N 37°08' W 008°32'0 0.0
2017-Oct-17 03:00N 37°08' W 008°32'0 0.0
2017-Oct-17 02:30N 37°08' W 008°32'0 0.0
2017-Oct-17 02:00N 37°08' W 008°32'0 0.0
2017-Oct-17 01:30N 37°08' W 008°32'0 0.0
2017-Oct-17 01:00N 37°08' W 008°32'0 0.0
2017-Oct-17 00:30N 37°08' W 008°32'0 0.0
2017-Oct-17 00:00N 37°08' W 008°32'0 0.0
2017-Oct-16 23:30N 37°08' W 008°32'  
Track history (hours):
 
Tides and Currents Weather Stations Pressure Air Temp Water Temp Dewpoint Dewpoint Depression Visibility Wind Speed Wind Dir Waves Ship Positions

Flor Da Beira

Last reported at 2017-Oct-26 10:26 UTC. Time now 2017-Dec-14 00:29 UTC.
Position N 37°02' W 008°11'.
Warning: this ship's position is 48 days out of date.

Length 23 m.

Type: Fishing. MMSI: 263408350.

Date/timePositionNaut miles runAvg speedWind from/ knotsBaromVisibWave heightAir tempDewpointWater temp
2017-Oct-26 10:26N 37°02' W 008°11'0 0.4
2017-Oct-26 09:48N 37°02' W 008°11'0 0.1
2017-Oct-26 09:28N 37°02' W 008°11'1 1.7
2017-Oct-26 08:52N 37°02' W 008°12'1 2.5
2017-Oct-26 08:28N 37°02' W 008°14'1 1.9
2017-Oct-26 07:59N 37°03' W 008°14'0 0.5
2017-Oct-26 07:29N 37°03' W 008°14'0 0.1
2017-Oct-26 06:29N 37°03' W 008°14'0 0.6
2017-Oct-26 05:57N 37°03' W 008°14'4 0.1
2017-Oct-24 05:25N 36°59' W 008°11'0 0.4
2017-Oct-24 05:00N 36°59' W 008°11'0 0.2
2017-Oct-24 04:26N 36°59' W 008°11'0 0.2
2017-Oct-24 03:59N 36°59' W 008°11'2 1.6
2017-Oct-24 02:43N 37°00' W 008°09'3 0.2
2017-Oct-23 07:03N 36°57' W 008°10'0 0.4
2017-Oct-23 07:00N 36°57' W 008°10'0 0.4
2017-Oct-23 06:30N 36°57' W 008°10'0 0.1
2017-Oct-23 06:00N 36°57' W 008°10'0 0.2
2017-Oct-23 05:30N 36°58' W 008°10'1 1.7
2017-Oct-23 04:54N 36°57' W 008°09'1 2.6
2017-Oct-23 04:27N 36°58' W 008°10'1 2.0
2017-Oct-23 03:59N 36°59' W 008°10'2 2.3
2017-Oct-23 03:16N 37°00' W 008°09'0 0.4
2017-Oct-23 02:40N 37°01' W 008°09'0 0.3
2017-Oct-23 02:28N 37°01' W 008°09'0 0.1
2017-Oct-23 02:00N 37°01' W 008°09'0 0.9
2017-Oct-23 01:29N 37°01' W 008°10'4 8.6
2017-Oct-23 01:00N 37°02' W 008°15'5 9.3
2017-Oct-23 00:30N 37°01' W 008°20'5 9.6
2017-Oct-23 00:00N 37°04' W 008°25'5 9.8
2017-Oct-22 23:28N 37°06' W 008°31'2 4.2
2017-Oct-22 23:00N 37°08' W 008°32'  
2017-Oct-20 04:23N 37°08' W 008°32'0 0.2
2017-Oct-20 04:00N 37°08' W 008°32'1 1.0
2017-Oct-20 03:30N 37°07' W 008°32'5 8.4
2017-Oct-20 02:54N 37°05' W 008°37'8 4.5
2017-Oct-20 01:11N 37°04' W 008°47'1 4.6
2017-Oct-20 00:53N 37°03' W 008°48'0 0.2
2017-Oct-20 00:27N 37°03' W 008°48'0 0.1
2017-Oct-20 00:00N 37°03' W 008°48'3 0.2
2017-Oct-19 07:12N 37°01' W 008°49'2 8.7
2017-Oct-19 07:01N 37°01' W 008°47'2 3.3
2017-Oct-19 06:30N 37°02' W 008°46'4 7.5
2017-Oct-19 05:59N 37°01' W 008°41'3 5.9
2017-Oct-19 05:30N 37°02' W 008°38'4 8.6
2017-Oct-19 05:01N 37°04' W 008°33'4 7.1
2017-Oct-19 04:30N 37°05' W 008°28'3 5.8
2017-Oct-19 04:00N 37°03' W 008°26'3 6.2
2017-Oct-19 03:30N 37°01' W 008°29'3 6.2
2017-Oct-19 03:01N 37°03' W 008°31'4 7.7
2017-Oct-19 02:30N 37°07' W 008°32'1 1.9
2017-Oct-19 02:01N 37°08' W 008°32'0 0.0
2017-Oct-19 01:30N 37°08' W 008°32'0 0.0
2017-Oct-19 01:01N 37°08' W 008°32'0 0.0
2017-Oct-19 00:31N 37°08' W 008°32'0 0.0
2017-Oct-19 00:01N 37°08' W 008°32'0 0.0
2017-Oct-17 05:09N 37°08' W 008°32'0 0.0
2017-Oct-17 05:00N 37°08' W 008°32'0 0.0
2017-Oct-17 04:28N 37°08' W 008°32'0 0.0
2017-Oct-17 04:00N 37°08' W 008°32'0 0.0
2017-Oct-17 03:16N 37°08' W 008°32'0 0.0
2017-Oct-17 03:00N 37°08' W 008°32'0 0.0
2017-Oct-17 02:30N 37°08' W 008°32'0 0.0
2017-Oct-17 02:00N 37°08' W 008°32'0 0.0
2017-Oct-17 01:30N 37°08' W 008°32'0 0.0
2017-Oct-17 01:00N 37°08' W 008°32'0 0.0
2017-Oct-17 00:30N 37°08' W 008°32'0 0.0
2017-Oct-17 00:00N 37°08' W 008°32'0 0.0
2017-Oct-16 23:30N 37°08' W 008°32'  

Dump ship's entire track history